»·PEaware :: N614FT KOLS-KPHX

N614FT :: KOLS-KPHX

FLIGHT INFORMATION

Flight Status: Arrived
Operator: Privately registered:
United States
More flights under this callsign
Pilot: Carlos A. (16805)
Aircraft: PIPER PA-31/31P NAVAJO CHIEFTAIN
(PA31)
More flights by this aircraft type
Origin: KOLS Nogales Intl
United States
Destination: KPHX Phoenix Sky Harbor Intl
United States
More flights between these airports :: More routes between these airports
Route: ARVEY TUS TFD PXR
File this flight plan on PilotEdge
Remarks: Arizona Alphabet Challenge
Altitude:
(Current/Filed)
6,000ft
Speed:
(Current/Filed)
180kts
Departed: 15-Sep-23 03:13 PM
Arrived: 15-Sep-23 04:05 PM
Distance/Time
Traveled:
0nm/0:52
Distance/Time
To Go:
Arrived

Flight Plot

Page will automatically refresh every two minutes.

Flight plan parsing failed; only flown route is shown


Map Options




Map Legend


Flown Route
Filed Route
Departure Airport
Arrival Airport
Navaid (VOR, NDB)
Fix

Horizontal Profiles

Position Reports

Time Latitude Longitude Heading Altitude Ground
Speed
15-Sep-23 14:46 31.417773 -110.850937 316 3959ft 0kts
15-Sep-23 14:47 31.417774 -110.850938 316 3959ft 0kts
15-Sep-23 14:48 31.417775 -110.850939 316 3959ft 0kts
15-Sep-23 14:49 31.417775 -110.850940 316 3959ft 0kts
15-Sep-23 14:50 31.417776 -110.850941 316 3959ft 0kts
15-Sep-23 14:51 31.417777 -110.850942 316 3959ft 0kts
15-Sep-23 14:52 31.417778 -110.850943 316 3959ft 0kts
15-Sep-23 14:53 31.417779 -110.850944 316 3959ft 0kts
15-Sep-23 14:54 31.417780 -110.850945 316 3959ft 0kts
15-Sep-23 14:55 31.417781 -110.850946 316 3959ft 0kts
15-Sep-23 14:56 31.417854 -110.850882 132 3959ft 0kts
15-Sep-23 14:57 31.417815 -110.850857 163 3959ft 0kts
15-Sep-23 14:58 31.417801 -110.850854 172 3959ft 0kts
15-Sep-23 14:59 31.417794 -110.850853 172 3959ft 0kts
15-Sep-23 15:00 31.417785 -110.850852 172 3959ft 0kts
15-Sep-23 15:01 31.417778 -110.850851 172 3959ft 0kts
15-Sep-23 15:02 31.417777 -110.850850 172 3959ft 0kts
15-Sep-23 15:03 31.417775 -110.850850 172 3959ft 0kts
15-Sep-23 15:04 31.417774 -110.850850 172 3959ft 0kts
15-Sep-23 15:05 31.417545 -110.850704 137 3959ft 9kts
15-Sep-23 15:06 31.415521 -110.852531 227 3959ft 10kts
15-Sep-23 15:07 31.413025 -110.855553 227 3959ft 14kts
15-Sep-23 15:08 31.410862 -110.857006 138 3959ft 0kts
15-Sep-23 15:09 31.410860 -110.857004 138 3959ft 0kts
15-Sep-23 15:10 31.410858 -110.857001 138 3959ft 0kts
15-Sep-23 15:11 31.410856 -110.856999 138 3959ft 0kts
15-Sep-23 15:12 31.412403 -110.854387 48 3959ft 71kts
15-Sep-23 15:13 31.434581 -110.833712 344 4634ft 116kts
15-Sep-23 15:14 31.455028 -110.859387 305 5642ft 116kts
15-Sep-23 15:15 31.483123 -110.884359 333 6602ft 152kts
15-Sep-23 15:16 31.533667 -110.907737 337 6496ft 209kts
15-Sep-23 15:17 31.587780 -110.934135 332 6428ft 214kts
15-Sep-23 15:18 31.639883 -110.965576 334 6522ft 212kts
15-Sep-23 15:19 31.697191 -110.983928 6 6332ft 217kts
15-Sep-23 15:20 31.755022 -110.972022 9 6428ft 212kts
15-Sep-23 15:21 31.813552 -110.962133 5 6376ft 213kts
15-Sep-23 15:22 31.871980 -110.955538 8 6407ft 213kts
15-Sep-23 15:23 31.930029 -110.945885 9 6503ft 213kts
15-Sep-23 15:24 31.989427 -110.937241 4 6554ft 215kts
15-Sep-23 15:25 32.049173 -110.941435 348 6472ft 214kts
15-Sep-23 15:26 32.105847 -110.962183 335 6337ft 215kts
15-Sep-23 15:27 32.156056 -110.998536 320 6392ft 209kts
15-Sep-23 15:28 32.191515 -111.051785 297 6433ft 212kts
15-Sep-23 15:29 32.221235 -111.112154 303 6556ft 206kts
15-Sep-23 15:30 32.256392 -111.167685 305 6465ft 211kts
15-Sep-23 15:31 32.291565 -111.223688 308 6515ft 211kts
15-Sep-23 15:32 32.326858 -111.280354 302 6494ft 213kts
15-Sep-23 15:33 32.363715 -111.336342 307 6474ft 211kts
15-Sep-23 15:34 32.401628 -111.390291 310 6437ft 212kts
15-Sep-23 15:35 32.436115 -111.446702 302 6547ft 208kts
15-Sep-23 15:36 32.469702 -111.503491 307 6550ft 209kts
15-Sep-23 15:37 32.503670 -111.560036 298 6669ft 211kts
15-Sep-23 15:38 32.538431 -111.616835 320 6534ft 213kts
15-Sep-23 15:39 32.587063 -111.656803 324 6557ft 211kts
15-Sep-23 15:40 32.633905 -111.700000 321 6520ft 212kts
15-Sep-23 15:41 32.682412 -111.740525 323 6483ft 211kts
15-Sep-23 15:42 32.731589 -111.779267 326 6570ft 212kts
15-Sep-23 15:43 32.781593 -111.817415 328 6578ft 210kts
15-Sep-23 15:44 32.831485 -111.856336 324 6475ft 210kts
15-Sep-23 15:45 32.881652 -111.892691 337 6452ft 213kts
15-Sep-23 15:46 32.937802 -111.915183 343 6539ft 210kts
15-Sep-23 15:47 32.996889 -111.926016 348 6507ft 211kts
15-Sep-23 15:48 33.043852 -111.965913 319 6106ft 199kts
15-Sep-23 15:49 33.084292 -112.011009 311 5994ft 194kts
15-Sep-23 15:50 33.119386 -112.058791 315 6171ft 186kts
15-Sep-23 15:51 33.157265 -112.102667 309 6225ft 188kts
15-Sep-23 15:52 33.196558 -112.146713 326 6088ft 204kts
15-Sep-23 15:53 33.243388 -112.187337 320 6030ft 211kts
15-Sep-23 15:54 33.289324 -112.230452 322 5876ft 219kts
15-Sep-23 15:55 33.333519 -112.277660 310 5891ft 215kts
15-Sep-23 15:56 33.376310 -112.328162 321 4934ft 196kts
15-Sep-23 15:57 33.416596 -112.350467 26 5016ft 156kts
15-Sep-23 15:58 33.427953 -112.303057 90 5016ft 165kts
15-Sep-23 15:59 33.429765 -112.249633 93 4858ft 160kts
15-Sep-23 16:00 33.429149 -112.194830 89 4088ft 173kts
15-Sep-23 16:02 33.430096 -112.139734 87 3058ft 150kts
15-Sep-23 16:03 33.429002 -112.099883 89 2318ft 101kts
15-Sep-23 16:04 33.428921 -112.064383 86 1831ft 127kts
15-Sep-23 16:05 33.428526 -112.027115 102 1137ft 0kts
15-Sep-23 16:06 31.417767 -110.850931 316 3859ft 0kts

Navigation Log

Ident Type
Flight plan parsing failed, navigation log unavailable